Time;durP1;ratioP1;P1;durP2;ratioP2;P2;SDS_P1;SDS_P2;PMS_P1;PMS_P2;Temp;Humidity;BMP_temperature;BMP_pressure;BME280_temperature;BME280_humidity;BME280_pressure;Samples;Min_cycle;Max_cycle;Signal;HPM_P1;HPM_P2
2022/09/05 00:01:36;;;;;;;2.85;2.38;;;22.50;99.90;;;;;;6052836;28;89227;-94
2022/09/05 00:04:49;;;;;;;2.67;2.20;;;22.50;99.90;;;;;;6047518;28;88018;-95
2022/09/05 00:07:59;;;;;;;2.72;2.35;;;22.50;99.90;;;;;;6042296;28;88498;-95
2022/09/05 00:11:10;;;;;;;2.30;2.10;;;22.40;99.90;;;;;;6040787;28;90582;-95
2022/09/05 00:14:39;;;;;;;3.17;2.50;;;22.50;99.90;;;;;;6049370;28;89316;-94
2022/09/05 00:17:47;;;;;;;2.35;2.15;;;22.40;99.90;;;;;;6052986;28;90025;-95
2022/09/05 00:20:56;;;;;;;2.88;2.47;;;22.50;99.90;;;;;;6048312;28;89384;-95
2022/09/05 00:24:12;;;;;;;2.67;2.15;;;22.50;99.90;;;;;;6042732;28;89109;-95
2022/09/05 00:27:22;;;;;;;3.05;2.15;;;22.40;99.90;;;;;;6052122;28;89428;-94
2022/09/05 00:30:25;;;;;;;2.60;2.15;;;22.40;99.90;;;;;;6040317;28;89196;-96
2022/09/05 00:33:35;;;;;;;3.33;2.30;;;22.50;99.90;;;;;;6052931;28;89093;-95
2022/09/05 00:36:45;;;;;;;2.65;2.45;;;22.50;99.90;;;;;;6053170;28;89948;-96
2022/09/05 00:39:47;;;;;;;3.95;2.83;;;22.40;99.90;;;;;;6057783;28;87527;-95
2022/09/05 00:42:54;;;;;;;2.50;2.30;;;22.50;99.90;;;;;;6059020;28;89388;-95
2022/09/05 00:46:01;;;;;;;2.35;2.15;;;22.50;99.90;;;;;;6053254;28;89062;-95
2022/09/05 00:49:15;;;;;;;2.65;2.40;;;22.40;99.90;;;;;;6063243;28;90089;-95
2022/09/05 00:52:24;;;;;;;3.30;2.50;;;22.40;99.90;;;;;;6052484;28;91241;-96
2022/09/05 00:55:36;;;;;;;2.53;2.33;;;22.40;99.90;;;;;;6063436;28;89128;-95
2022/09/05 00:58:57;;;;;;;3.95;2.40;;;22.40;99.90;;;;;;6062545;28;87260;-95
2022/09/05 01:02:06;;;;;;;3.08;2.38;;;22.40;99.90;;;;;;6050114;28;89174;-94
2022/09/05 01:05:23;;;;;;;2.63;2.42;;;22.40;99.90;;;;;;6059907;28;87973;-95
2022/09/05 01:08:48;;;;;;;3.10;2.40;;;22.50;99.90;;;;;;6046193;28;89224;-96
2022/09/05 01:12:06;;;;;;;2.50;2.30;;;22.40;99.90;;;;;;6044477;28;88579;-95
2022/09/05 01:15:21;;;;;;;2.60;2.40;;;22.50;99.90;;;;;;6063668;28;88495;-95
2022/09/05 01:18:53;;;;;;;2.40;2.20;;;22.40;99.90;;;;;;6049316;28;89417;-95
2022/09/05 01:22:22;;;;;;;2.83;2.40;;;22.40;99.90;;;;;;6059030;28;90067;-94
2022/09/05 01:25:35;;;;;;;2.92;2.10;;;22.40;99.90;;;;;;6049598;28;90024;-94
2022/09/05 01:28:44;;;;;;;2.72;2.10;;;22.40;99.90;;;;;;6060299;28;89060;-95
2022/09/05 01:32:09;;;;;;;2.42;2.20;;;22.40;99.90;;;;;;6070098;28;89072;-95
2022/09/05 01:35:49;;;;;;;3.40;2.47;;;22.40;99.90;;;;;;6056378;28;88088;-96
2022/09/05 01:39:03;;;;;;;2.97;2.70;;;22.40;99.90;;;;;;6061483;28;88896;-95
2022/09/05 01:42:10;;;;;;;2.53;2.33;;;22.40;99.90;;;;;;6056179;28;89538;-95
2022/09/05 01:45:21;;;;;;;3.00;2.33;;;22.40;99.90;;;;;;6051098;28;87924;-95
2022/09/05 01:48:40;;;;;;;3.05;2.55;;;22.40;99.90;;;;;;6045298;28;88117;-95
2022/09/05 01:52:07;;;;;;;3.13;2.83;;;22.40;99.90;;;;;;6060517;28;89088;-95
2022/09/05 01:55:22;;;;;;;2.55;2.35;;;22.40;99.90;;;;;;6061622;28;89349;-95
2022/09/05 01:58:33;;;;;;;3.67;2.30;;;22.40;99.90;;;;;;6049631;28;88088;-95
2022/09/05 02:02:01;;;;;;;2.70;2.40;;;22.40;99.90;;;;;;6059893;28;89070;-96
2022/09/05 02:05:18;;;;;;;2.50;2.30;;;22.50;99.90;;;;;;6052366;28;89067;-95
2022/09/05 02:08:34;;;;;;;3.15;2.50;;;22.40;99.90;;;;;;6057296;28;87776;-95
2022/09/05 02:11:49;;;;;;;2.72;2.40;;;22.40;99.90;;;;;;6042389;28;89091;-95
2022/09/05 02:15:00;;;;;;;2.63;2.42;;;22.40;99.90;;;;;;6050755;28;89108;-95
2022/09/05 02:18:11;;;;;;;2.80;2.60;;;22.40;99.90;;;;;;6061181;28;88838;-95
2022/09/05 02:21:23;;;;;;;2.75;2.55;;;22.40;99.90;;;;;;6057236;28;89329;-95
2022/09/05 02:24:34;;;;;;;3.33;2.55;;;22.40;99.90;;;;;;6043039;28;89254;-96
2022/09/05 02:27:43;;;;;;;2.80;2.60;;;22.40;99.90;;;;;;6060108;28;90066;-95
2022/09/05 02:30:53;;;;;;;2.72;2.53;;;22.40;99.90;;;;;;6046895;28;89663;-95
2022/09/05 02:34:06;;;;;;;2.90;2.60;;;22.40;99.90;;;;;;6057405;28;89340;-95
2022/09/05 02:37:16;;;;;;;2.83;2.60;;;22.40;99.90;;;;;;6041129;28;89032;-94
2022/09/05 02:40:24;;;;;;;3.15;2.67;;;22.40;99.90;;;;;;6061924;28;88358;-96
2022/09/05 02:43:35;;;;;;;3.25;2.60;;;22.40;99.90;;;;;;6060906;28;89122;-96
2022/09/05 02:46:47;;;;;;;2.78;2.58;;;22.50;99.90;;;;;;6061497;28;89112;-96
2022/09/05 02:50:08;;;;;;;2.80;2.60;;;22.40;99.90;;;;;;6050454;28;86373;-95
2022/09/05 02:53:13;;;;;;;2.60;2.40;;;22.40;99.90;;;;;;6050934;28;88945;-95
2022/09/05 02:56:35;;;;;;;2.50;2.30;;;22.40;99.90;;;;;;6051743;28;88219;-96
2022/09/05 02:59:48;;;;;;;2.88;2.55;;;22.40;99.90;;;;;;6054690;28;90081;-96
2022/09/05 03:03:10;;;;;;;2.67;2.47;;;22.40;99.90;;;;;;6065548;28;88005;-95
2022/09/05 03:06:29;;;;;;;2.70;2.50;;;22.40;99.90;;;;;;6042466;28;89146;-96
2022/09/05 03:09:44;;;;;;;2.97;2.67;;;22.40;99.90;;;;;;6055471;28;91530;-95
2022/09/05 03:13:31;;;;;;;2.65;2.42;;;22.40;99.90;;;;;;6054640;28;88980;-95
2022/09/05 03:17:05;;;;;;;2.60;2.40;;;22.40;99.90;;;;;;6046331;28;89063;-95
2022/09/05 03:20:51;;;;;;;3.00;2.38;;;22.40;99.90;;;;;;6055283;28;89145;-95
2022/09/05 03:24:27;;;;;;;3.25;2.50;;;22.40;99.90;;;;;;6052579;28;87271;-95
2022/09/05 03:27:52;;;;;;;2.90;2.42;;;22.40;99.90;;;;;;6060750;28;90698;-96
2022/09/05 03:31:18;;;;;;;3.03;2.42;;;22.40;99.90;;;;;;6051194;28;89084;-95
2022/09/05 03:35:03;;;;;;;2.50;2.30;;;22.40;99.90;;;;;;6052047;28;89972;-96
2022/09/05 03:38:30;;;;;;;2.88;2.58;;;22.40;99.90;;;;;;5968688;29;89559;-95
2022/09/05 03:42:00;;;;;;;2.70;2.50;;;22.40;99.90;;;;;;6023690;28;89232;-95
2022/09/05 03:45:20;;;;;;;2.70;2.50;;;22.40;99.90;;;;;;6061205;28;88830;-96
2022/09/05 03:48:54;;;;;;;2.92;2.63;;;22.40;99.90;;;;;;6058780;28;89102;-95
2022/09/05 03:52:07;;;;;;;2.70;2.50;;;22.40;99.90;;;;;;6063234;28;89592;-96
2022/09/05 03:55:57;;;;;;;3.03;2.65;;;22.40;99.90;;;;;;6057176;28;86979;-95
2022/09/05 03:59:26;;;;;;;3.05;2.50;;;22.40;99.90;;;;;;6054630;28;88353;-94
2022/09/05 04:02:31;;;;;;;3.55;2.50;;;22.40;99.90;;;;;;6059291;28;90742;-96
2022/09/05 04:05:37;;;;;;;3.53;2.80;;;22.30;99.90;;;;;;6054290;28;87482;-96
2022/09/05 04:08:46;;;;;;;3.72;2.88;;;22.30;99.90;;;;;;6070449;28;90367;-95
2022/09/05 04:11:52;;;;;;;2.80;2.60;;;22.40;99.90;;;;;;6048886;28;88079;-96
2022/09/05 04:15:00;;;;;;;2.70;2.50;;;22.30;99.90;;;;;;6045530;28;88209;-96
2022/09/05 04:18:05;;;;;;;3.17;2.50;;;22.30;99.90;;;;;;6063619;28;88238;-96
2022/09/05 04:21:13;;;;;;;2.90;2.70;;;22.30;99.90;;;;;;6050457;28;89051;-96
2022/09/05 04:24:25;;;;;;;4.43;2.75;;;22.30;99.90;;;;;;6073758;28;89417;-96
2022/09/05 04:27:38;;;;;;;2.88;2.45;;;22.30;99.90;;;;;;6054347;28;89466;-96
2022/09/05 04:30:47;;;;;;;5.15;3.47;;;22.40;99.90;;;;;;6061056;28;88334;-96
2022/09/05 04:34:07;;;;;;;3.40;2.80;;;22.30;99.90;;;;;;6052602;28;88293;-96
2022/09/05 04:37:10;;;;;;;3.70;2.90;;;22.30;99.90;;;;;;6042485;28;88392;-95
2022/09/05 04:40:39;;;;;;;2.75;2.55;;;22.40;99.90;;;;;;6044175;28;88842;-96
2022/09/05 04:43:47;;;;;;;3.00;2.78;;;22.40;99.90;;;;;;6053143;28;89401;-95
2022/09/05 04:46:53;;;;;;;4.07;2.85;;;22.30;99.90;;;;;;6053412;28;89506;-96
2022/09/05 04:49:59;;;;;;;2.88;2.65;;;22.30;99.90;;;;;;6063287;28;89109;-96
2022/09/05 04:53:15;;;;;;;2.67;2.47;;;22.30;99.90;;;;;;6047959;28;88335;-95
2022/09/05 04:56:20;;;;;;;2.50;2.20;;;22.30;99.90;;;;;;6052312;28;88409;-96
2022/09/05 04:59:27;;;;;;;2.70;2.50;;;22.30;99.90;;;;;;6055238;28;88090;-95
2022/09/05 05:02:37;;;;;;;3.10;2.45;;;22.30;99.90;;;;;;6052884;28;88458;-96
2022/09/05 05:05:59;;;;;;;2.95;2.58;;;22.30;99.90;;;;;;6052835;28;89193;-96
2022/09/05 05:09:04;;;;;;;2.88;2.55;;;22.30;99.90;;;;;;6050889;28;88295;-96
2022/09/05 05:12:15;;;;;;;2.42;2.22;;;22.30;99.90;;;;;;6040566;28;90530;-95
2022/09/05 05:15:21;;;;;;;2.40;2.20;;;22.30;99.90;;;;;;6040553;28;87995;-95
2022/09/05 05:18:30;;;;;;;2.40;2.20;;;22.40;99.90;;;;;;6046852;28;89273;-96
2022/09/05 05:21:33;;;;;;;2.63;2.42;;;22.30;99.90;;;;;;6044109;28;89313;-96
2022/09/05 05:24:42;;;;;;;2.60;2.40;;;22.30;99.90;;;;;;6042734;28;88437;-96
2022/09/05 05:27:54;;;;;;;2.70;2.50;;;22.30;99.90;;;;;;6052165;28;89337;-96
2022/09/05 05:31:08;;;;;;;2.75;2.55;;;22.30;99.90;;;;;;6039877;28;88396;-95
2022/09/05 05:34:20;;;;;;;3.05;2.75;;;22.30;99.90;;;;;;6039249;28;88309;-96
2022/09/05 05:37:28;;;;;;;2.58;2.38;;;22.40;99.90;;;;;;6044229;28;88422;-96
2022/09/05 05:40:38;;;;;;;2.90;2.70;;;22.30;99.90;;;;;;6059593;28;89177;-96
2022/09/05 05:43:43;;;;;;;2.63;2.42;;;22.30;99.90;;;;;;6056993;28;90228;-96
2022/09/05 05:46:53;;;;;;;3.00;2.70;;;22.30;99.90;;;;;;6044888;28;89209;-96
2022/09/05 05:50:02;;;;;;;3.03;2.72;;;22.30;99.90;;;;;;6052664;28;89585;-96
2022/09/05 05:53:34;;;;;;;3.38;3.00;;;22.30;99.90;;;;;;6058697;28;89595;-96
2022/09/05 05:56:50;;;;;;;3.10;2.88;;;22.30;99.90;;;;;;6050486;28;89124;-96
2022/09/05 06:00:09;;;;;;;4.68;3.25;;;22.30;99.90;;;;;;6043469;28;88555;-96
2022/09/05 06:03:47;;;;;;;3.47;2.58;;;22.30;99.90;;;;;;6053970;28;88325;-96
2022/09/05 06:07:07;;;;;;;2.70;2.50;;;22.30;99.90;;;;;;6050337;28;88651;-96
2022/09/05 06:10:44;;;;;;;3.22;2.58;;;22.30;99.90;;;;;;6056028;28;89444;-96
2022/09/05 06:14:19;;;;;;;2.83;2.50;;;22.20;99.90;;;;;;6047904;28;88445;-96
2022/09/05 06:17:52;;;;;;;2.88;2.67;;;22.30;99.90;;;;;;6048703;28;89278;-96
2022/09/05 06:21:13;;;;;;;3.88;3.00;;;22.20;99.90;;;;;;6036713;28;88041;-96
2022/09/05 06:24:53;;;;;;;3.03;2.72;;;22.30;99.90;;;;;;6053510;28;87350;-94
2022/09/05 06:28:06;;;;;;;2.67;2.45;;;22.20;99.90;;;;;;6060133;28;89006;-96
2022/09/05 06:31:26;;;;;;;2.80;2.60;;;22.30;99.90;;;;;;6059544;28;89013;-96
2022/09/05 06:34:52;;;;;;;2.80;2.60;;;22.20;99.90;;;;;;6060294;28;91797;-96
2022/09/05 06:38:07;;;;;;;2.53;2.33;;;22.20;99.90;;;;;;6052594;28;88003;-96
2022/09/05 06:41:22;;;;;;;3.17;2.88;;;22.30;99.90;;;;;;6049128;28;88671;-96
2022/09/05 06:44:46;;;;;;;3.10;2.80;;;22.30;99.90;;;;;;6049841;28;89289;-96
2022/09/05 06:47:56;;;;;;;3.45;2.95;;;22.20;99.90;;;;;;6050128;28;89081;-96
2022/09/05 06:51:20;;;;;;;2.92;2.72;;;22.20;99.90;;;;;;6052163;28;90393;-96
2022/09/05 06:54:46;;;;;;;3.65;2.78;;;22.20;99.90;;;;;;6063831;28;88759;-96
2022/09/05 06:58:17;;;;;;;2.97;2.78;;;22.30;99.90;;;;;;6067778;28;89062;-95
2022/09/05 07:01:26;;;;;;;4.53;3.40;;;22.20;99.90;;;;;;6063843;28;88259;-96
2022/09/05 07:04:37;;;;;;;3.45;3.15;;;22.20;99.90;;;;;;6043157;28;89277;-96
2022/09/05 07:07:44;;;;;;;3.33;2.85;;;22.30;99.90;;;;;;6054207;28;89076;-96
2022/09/05 07:10:57;;;;;;;3.25;2.95;;;22.20;99.90;;;;;;6054287;28;88451;-95
2022/09/05 07:14:07;;;;;;;2.88;2.67;;;22.20;99.90;;;;;;6065188;28;88750;-96
2022/09/05 07:17:13;;;;;;;3.20;2.90;;;22.20;99.90;;;;;;6065293;28;88207;-96
2022/09/05 07:20:22;;;;;;;3.30;3.00;;;22.30;99.90;;;;;;6051083;28;88317;-96
2022/09/05 07:23:42;;;;;;;3.20;2.90;;;22.30;99.90;;;;;;6056112;28;90303;-96
2022/09/05 07:26:49;;;;;;;3.60;2.90;;;22.20;99.90;;;;;;6051003;28;88352;-96
2022/09/05 07:29:55;;;;;;;3.47;3.17;;;22.30;99.90;;;;;;6055742;28;89064;-95
2022/09/05 07:33:01;;;;;;;3.83;3.38;;;22.20;99.90;;;;;;6061175;28;89214;-96
2022/09/05 07:36:08;;;;;;;4.10;3.70;;;22.20;99.90;;;;;;6051803;28;89449;-96
2022/09/05 07:39:16;;;;;;;3.78;3.42;;;22.20;99.90;;;;;;6063814;28;91187;-95
2022/09/05 07:42:25;;;;;;;3.70;3.40;;;22.30;99.90;;;;;;6063497;28;88984;-95
2022/09/05 07:45:29;;;;;;;3.47;3.17;;;22.20;99.90;;;;;;6061249;28;88395;-96
2022/09/05 07:48:36;;;;;;;3.80;3.40;;;22.20;99.90;;;;;;6058193;28;87968;-96
2022/09/05 07:51:46;;;;;;;3.65;3.35;;;22.30;99.90;;;;;;6058975;28;88541;-95
2022/09/05 07:54:51;;;;;;;5.22;3.72;;;22.20;99.90;;;;;;6054697;28;90167;-95
2022/09/05 07:57:56;;;;;;;3.85;3.53;;;22.20;99.90;;;;;;6065241;28;89130;-95
2022/09/05 08:01:02;;;;;;;3.67;3.33;;;22.30;99.90;;;;;;6056607;28;89462;-96
2022/09/05 08:04:05;;;;;;;4.25;3.20;;;22.20;99.90;;;;;;6055610;28;88230;-96
2022/09/05 08:07:11;;;;;;;4.40;3.50;;;22.30;99.90;;;;;;6049720;28;89247;-95
2022/09/05 08:10:17;;;;;;;4.07;3.70;;;22.20;99.90;;;;;;6064018;28;87982;-94
2022/09/05 08:13:22;;;;;;;5.93;3.75;;;22.20;99.90;;;;;;6051016;28;89055;-96
2022/09/05 08:16:27;;;;;;;4.25;3.88;;;22.30;99.90;;;;;;6049840;28;88375;-95
2022/09/05 08:19:45;;;;;;;4.53;4.13;;;22.20;99.90;;;;;;6061458;28;88332;-95
2022/09/05 08:22:52;;;;;;;4.03;3.63;;;22.20;99.90;;;;;;6047305;28;88757;-95
2022/09/05 08:25:59;;;;;;;4.20;3.80;;;22.20;99.90;;;;;;6054231;28;90397;-96
2022/09/05 08:29:09;;;;;;;4.32;3.90;;;22.20;99.90;;;;;;6048503;28;87295;-95
2022/09/05 08:32:16;;;;;;;4.53;4.13;;;22.30;99.90;;;;;;6052123;28;89054;-95
2022/09/05 08:35:26;;;;;;;4.50;4.10;;;22.20;99.90;;;;;;6052630;28;89223;-94
2022/09/05 08:38:32;;;;;;;4.40;4.00;;;22.30;99.90;;;;;;6047331;28;89580;-95
2022/09/05 08:41:44;;;;;;;4.65;4.07;;;22.20;99.90;;;;;;6049283;28;89070;-94
2022/09/05 08:45:03;;;;;;;4.57;4.15;;;22.30;99.90;;;;;;6063444;28;89287;-96
2022/09/05 08:48:18;;;;;;;4.28;3.88;;;22.30;99.90;;;;;;6055924;28;87322;-95
2022/09/05 08:51:28;;;;;;;4.38;3.63;;;22.20;99.90;;;;;;6046998;28;88861;-95
2022/09/05 08:54:36;;;;;;;4.22;3.83;;;22.30;99.90;;;;;;6050831;28;89237;-95
2022/09/05 08:58:08;;;;;;;4.45;4.00;;;22.30;99.90;;;;;;6060881;28;91138;-95
2022/09/05 09:01:17;;;;;;;4.82;4.13;;;22.20;99.90;;;;;;6051556;28;88050;-95
2022/09/05 09:04:29;;;;;;;5.25;3.97;;;22.20;99.90;;;;;;6044556;28;89643;-95
2022/09/05 09:07:35;;;;;;;4.20;3.80;;;22.30;99.90;;;;;;6048874;28;88824;-95
2022/09/05 09:10:52;;;;;;;4.55;3.78;;;22.20;99.90;;;;;;6055177;28;89856;-96
2022/09/05 09:13:56;;;;;;;4.07;3.67;;;22.20;99.90;;;;;;6051092;28;87968;-95
2022/09/05 09:17:06;;;;;;;4.40;3.90;;;22.20;99.90;;;;;;6047157;28;88539;-95
2022/09/05 09:20:17;;;;;;;4.22;3.83;;;22.30;99.90;;;;;;6048037;28;87567;-96
2022/09/05 09:23:43;;;;;;;4.28;3.88;;;22.20;99.90;;;;;;6062512;28;87895;-95
2022/09/05 09:26:54;;;;;;;4.35;3.95;;;22.20;99.90;;;;;;6061939;28;90026;-95
2022/09/05 09:30:02;;;;;;;4.07;3.67;;;22.20;99.90;;;;;;6061158;28;90231;-95
2022/09/05 09:33:14;;;;;;;4.07;3.78;;;22.20;99.90;;;;;;6059171;28;88981;-95
2022/09/05 09:36:43;;;;;;;4.78;4.20;;;22.20;99.90;;;;;;6054351;28;88956;-96
2022/09/05 09:40:12;;;;;;;4.28;3.90;;;22.20;99.90;;;;;;6039509;28;88510;-95
2022/09/05 09:43:22;;;;;;;4.40;4.00;;;22.20;99.90;;;;;;6039103;28;88507;-95
2022/09/05 09:46:33;;;;;;;4.70;4.30;;;22.20;99.90;;;;;;6052138;28;88979;-95
2022/09/05 09:50:06;;;;;;;5.15;4.65;;;22.20;99.90;;;;;;6050682;28;89385;-95
2022/09/05 09:53:32;;;;;;;4.07;3.78;;;22.30;99.90;;;;;;6044995;28;88638;-94
2022/09/05 09:57:11;;;;;;;4.85;4.45;;;22.30;99.90;;;;;;6051399;28;89107;-95
2022/09/05 10:00:20;;;;;;;5.13;4.53;;;22.30;99.90;;;;;;6048242;28;88453;-95
2022/09/05 10:03:47;;;;;;;4.80;4.40;;;22.30;99.90;;;;;;6061721;28;88784;-95
2022/09/05 10:07:27;;;;;;;4.82;4.43;;;22.30;99.90;;;;;;6044100;28;88056;-96
2022/09/05 10:10:56;;;;;;;4.55;4.10;;;22.30;99.90;;;;;;6047883;28;88516;-95
2022/09/05 10:14:39;;;;;;;5.80;4.38;;;22.30;99.90;;;;;;6061772;28;89411;-95
2022/09/05 10:18:14;;;;;;;5.68;4.88;;;22.30;99.90;;;;;;6052411;28;88471;-95
2022/09/05 10:21:37;;;;;;;5.25;4.75;;;22.30;99.90;;;;;;6036951;28;89090;-95
2022/09/05 10:25:06;;;;;;;4.85;4.45;;;22.30;99.90;;;;;;6049111;28;88296;-95
2022/09/05 10:28:26;;;;;;;5.25;4.70;;;22.30;99.90;;;;;;6057294;28;90346;-96
2022/09/05 10:31:46;;;;;;;5.07;4.57;;;22.30;99.90;;;;;;6060530;28;88754;-95
2022/09/05 10:34:58;;;;;;;5.10;4.60;;;22.40;99.90;;;;;;6064319;28;89050;-94
2022/09/05 10:38:10;;;;;;;5.60;4.80;;;22.30;99.90;;;;;;6057985;28;90047;-95
2022/09/05 10:41:17;;;;;;;5.97;4.53;;;22.40;99.90;;;;;;6051589;28;89544;-96
2022/09/05 10:44:34;;;;;;;4.95;4.53;;;22.30;99.90;;;;;;6052092;28;88800;-96
2022/09/05 10:47:41;;;;;;;4.63;4.18;;;22.30;99.90;;;;;;6050896;28;89350;-96
2022/09/05 10:50:46;;;;;;;4.45;4.05;;;22.30;99.90;;;;;;6061341;28;89532;-95
2022/09/05 10:54:01;;;;;;;5.10;4.70;;;22.30;99.90;;;;;;6067641;28;91040;-96
2022/09/05 10:57:17;;;;;;;5.20;4.70;;;22.30;99.90;;;;;;6048114;28;88325;-95
2022/09/05 11:00:55;;;;;;;4.70;4.30;;;22.30;99.90;;;;;;6053012;28;90792;-95
2022/09/05 11:04:12;;;;;;;4.63;4.22;;;22.30;99.90;;;;;;6014691;28;89518;-96
2022/09/05 11:07:17;;;;;;;5.35;4.57;;;22.40;99.90;;;;;;6053777;28;88311;-96
2022/09/05 11:10:23;;;;;;;5.20;4.55;;;22.40;99.90;;;;;;6054554;28;91913;-96
2022/09/05 11:13:43;;;;;;;4.57;4.20;;;22.40;99.90;;;;;;6038373;28;88300;-95
2022/09/05 11:16:51;;;;;;;5.25;4.30;;;22.40;99.90;;;;;;6047274;28;89382;-96
2022/09/05 11:20:08;;;;;;;4.45;4.05;;;22.40;99.90;;;;;;6050192;28;88157;-95
2022/09/05 11:23:17;;;;;;;4.60;4.18;;;22.30;99.90;;;;;;6043491;28;89039;-96
2022/09/05 11:26:30;;;;;;;4.05;3.75;;;22.30;99.90;;;;;;6047158;28;89094;-96
2022/09/05 11:29:38;;;;;;;4.20;3.90;;;22.30;99.90;;;;;;6042969;28;90598;-96
2022/09/05 11:33:16;;;;;;;4.60;4.07;;;22.30;99.90;;;;;;6043174;28;88665;-96
2022/09/05 11:36:24;;;;;;;4.25;3.80;;;22.40;99.90;;;;;;6048630;28;91365;-96
2022/09/05 11:40:08;;;;;;;3.95;3.65;;;22.40;99.90;;;;;;6055085;28;91200;-95
2022/09/05 11:43:50;;;;;;;6.82;4.95;;;22.40;99.90;;;;;;6042709;28;90295;-95
2022/09/05 11:47:14;;;;;;;3.90;3.60;;;22.40;99.90;;;;;;6046826;28;89128;-96
2022/09/05 11:51:00;;;;;;;4.40;4.00;;;22.40;99.90;;;;;;6061574;28;88746;-96
2022/09/05 11:54:47;;;;;;;4.38;4.00;;;22.40;99.90;;;;;;6052750;28;88394;-95
2022/09/05 11:58:06;;;;;;;4.10;3.80;;;22.40;99.90;;;;;;6053794;28;89271;-95
2022/09/05 12:01:14;;;;;;;3.88;3.50;;;22.40;99.90;;;;;;6046349;28;89168;-96
2022/09/05 12:04:45;;;;;;;4.13;3.72;;;22.40;99.90;;;;;;6052880;28;89090;-96
2022/09/05 12:08:00;;;;;;;4.07;3.78;;;22.40;99.90;;;;;;6040737;28;87593;-96
2022/09/05 12:11:16;;;;;;;3.70;3.40;;;22.40;99.90;;;;;;6053866;28;88492;-95
2022/09/05 12:14:37;;;;;;;3.83;3.53;;;22.40;99.90;;;;;;6054202;28;89051;-95
2022/09/05 12:17:52;;;;;;;4.53;3.80;;;22.40;99.90;;;;;;6050273;28;89326;-96
2022/09/05 12:21:02;;;;;;;5.15;3.95;;;22.40;99.90;;;;;;6064793;28;88507;-96
2022/09/05 12:24:09;;;;;;;4.55;3.60;;;22.40;99.90;;;;;;6062423;28;89040;-96
2022/09/05 12:27:16;;;;;;;3.63;3.33;;;22.40;99.90;;;;;;6051530;28;89007;-96
2022/09/05 12:30:24;;;;;;;3.58;3.28;;;22.40;99.90;;;;;;6053052;28;88497;-96
2022/09/05 12:33:30;;;;;;;3.70;3.28;;;22.40;99.90;;;;;;6052704;28;89197;-96
2022/09/05 12:36:38;;;;;;;3.63;3.33;;;22.40;99.90;;;;;;6048648;28;87992;-96
2022/09/05 12:39:45;;;;;;;3.72;3.40;;;22.40;99.90;;;;;;6062721;28;88376;-96
2022/09/05 12:42:56;;;;;;;3.67;3.38;;;22.40;99.90;;;;;;6051427;28;89118;-96
2022/09/05 12:46:02;;;;;;;3.67;3.38;;;22.40;99.90;;;;;;6052915;28;89167;-96
2022/09/05 12:49:10;;;;;;;3.40;3.10;;;22.40;99.90;;;;;;6051442;28;89953;-96
2022/09/05 12:52:18;;;;;;;3.60;3.30;;;22.50;99.90;;;;;;6041883;28;89006;-96
2022/09/05 12:55:26;;;;;;;3.40;3.10;;;22.50;99.90;;;;;;6060576;28;87705;-96
2022/09/05 12:58:34;;;;;;;3.75;3.45;;;22.50;99.90;;;;;;6059458;28;88159;-96
2022/09/05 13:01:39;;;;;;;3.72;3.42;;;22.50;99.90;;;;;;6057073;28;90966;-96
2022/09/05 13:04:47;;;;;;;4.63;3.80;;;22.50;99.90;;;;;;6052266;28;89064;-96
2022/09/05 13:07:57;;;;;;;4.32;3.80;;;22.50;99.90;;;;;;6053277;28;89170;-96
2022/09/05 13:11:00;;;;;;;4.18;3.83;;;22.50;99.90;;;;;;6051039;28;87555;-96
2022/09/05 13:14:12;;;;;;;4.00;3.60;;;22.50;99.90;;;;;;6040536;28;88296;-96
2022/09/05 13:17:18;;;;;;;3.90;3.60;;;22.50;99.90;;;;;;6064166;28;89476;-96
2022/09/05 13:20:31;;;;;;;3.80;3.50;;;22.50;99.90;;;;;;6049889;28;93307;-96
2022/09/05 13:23:40;;;;;;;4.13;3.83;;;22.50;99.90;;;;;;6049434;28;88405;-96
2022/09/05 13:26:50;;;;;;;4.07;3.78;;;22.50;99.90;;;;;;6061230;28;91216;-96
2022/09/05 13:29:57;;;;;;;3.80;3.50;;;22.50;99.90;;;;;;6040951;28;89122;-96
2022/09/05 13:33:04;;;;;;;3.92;3.50;;;22.50;99.90;;;;;;6048176;28;89220;-96
2022/09/05 13:36:12;;;;;;;4.15;3.75;;;22.50;99.90;;;;;;6052059;28;89728;-96
2022/09/05 13:39:21;;;;;;;4.10;3.70;;;22.50;99.90;;;;;;6053550;28;89252;-96
2022/09/05 13:42:26;;;;;;;3.90;3.60;;;22.50;99.90;;;;;;6052524;28;89389;-96
2022/09/05 13:45:37;;;;;;;4.00;3.63;;;22.50;99.90;;;;;;6041010;28;89153;-96
2022/09/05 13:48:49;;;;;;;3.85;3.55;;;22.50;99.90;;;;;;6051955;28;89041;-96
2022/09/05 13:52:04;;;;;;;3.90;3.60;;;22.50;99.90;;;;;;6057932;28;90126;-96
2022/09/05 13:55:21;;;;;;;6.15;4.18;;;22.50;99.90;;;;;;6056860;28;87420;-96
2022/09/05 13:58:38;;;;;;;4.32;3.90;;;22.50;99.90;;;;;;6051169;28;91251;-96
2022/09/05 14:01:58;;;;;;;4.15;3.72;;;22.50;99.90;;;;;;6046475;28;89160;-96
2022/09/05 14:05:18;;;;;;;4.00;3.70;;;22.50;99.90;;;;;;6038332;28;88343;-96
2022/09/05 14:08:46;;;;;;;4.10;3.78;;;22.50;99.90;;;;;;6056061;28;89016;-96
2022/09/05 14:11:55;;;;;;;4.20;3.90;;;22.50;99.90;;;;;;6062586;28;89104;-96
2022/09/05 14:15:00;;;;;;;4.30;3.90;;;22.50;99.90;;;;;;6049869;28;88369;-95
2022/09/05 14:18:15;;;;;;;3.88;3.58;;;22.50;99.90;;;;;;6056539;28;89188;-96
2022/09/05 14:21:16;;;;;;;4.07;3.60;;;22.50;99.90;;;;;;6039563;28;88266;-96
2022/09/05 14:24:23;;;;;;;3.88;3.58;;;22.50;99.90;;;;;;6054347;28;89473;-96
2022/09/05 14:27:28;;;;;;;5.15;4.15;;;22.50;99.90;;;;;;6059903;28;88318;-96
2022/09/05 14:30:39;;;;;;;4.30;3.90;;;22.50;99.90;;;;;;6060682;28;88385;-96
2022/09/05 14:34:10;;;;;;;4.47;4.07;;;22.50;99.90;;;;;;6038921;28;88957;-96
2022/09/05 14:37:22;;;;;;;4.00;3.70;;;22.50;99.90;;;;;;6052637;28;89097;-96
2022/09/05 14:41:03;;;;;;;4.13;3.70;;;22.50;99.90;;;;;;6044364;28;89339;-96
2022/09/05 14:44:42;;;;;;;4.13;3.78;;;22.50;99.90;;;;;;6060227;28;88286;-96
2022/09/05 14:48:15;;;;;;;4.82;4.22;;;22.50;99.90;;;;;;6051730;28;86629;-96
2022/09/05 14:51:40;;;;;;;4.25;3.95;;;22.60;99.90;;;;;;6058296;28;89066;-96
2022/09/05 14:54:54;;;;;;;3.85;3.55;;;22.60;99.90;;;;;;6057235;28;88643;-96
2022/09/05 14:58:00;;;;;;;4.13;3.72;;;22.50;99.90;;;;;;6039334;28;90428;-96
2022/09/05 15:01:06;;;;;;;4.22;3.83;;;22.50;99.90;;;;;;6053825;28;88389;-96
2022/09/05 15:04:09;;;;;;;4.40;4.00;;;22.60;99.90;;;;;;6060164;28;88248;-96
2022/09/05 15:07:20;;;;;;;4.13;3.83;;;22.60;99.90;;;;;;6059708;28;88307;-96
2022/09/05 15:10:32;;;;;;;4.10;3.80;;;22.60;99.90;;;;;;6051215;28;89055;-96
2022/09/05 15:13:42;;;;;;;4.40;4.00;;;22.60;99.90;;;;;;6057768;28;87917;-96
2022/09/05 15:16:58;;;;;;;4.32;4.03;;;22.60;99.90;;;;;;6048880;28;89281;-96
2022/09/05 15:20:05;;;;;;;4.78;4.10;;;22.60;99.90;;;;;;6064560;28;87224;-96
2022/09/05 15:23:28;;;;;;;4.30;3.90;;;22.60;99.90;;;;;;6049018;28;88070;-96
2022/09/05 15:26:34;;;;;;;4.32;4.03;;;22.50;99.90;;;;;;6054763;28;89139;-96
2022/09/05 15:29:37;;;;;;;4.70;4.30;;;22.60;99.90;;;;;;6054504;28;89960;-96
2022/09/05 15:32:41;;;;;;;4.40;4.00;;;22.60;99.90;;;;;;6042774;28;89131;-96
2022/09/05 15:35:44;;;;;;;4.28;3.97;;;22.50;99.90;;;;;;6043765;28;88305;-96
2022/09/05 15:38:49;;;;;;;4.47;4.13;;;22.60;99.90;;;;;;6063676;28;89087;-96
2022/09/05 15:41:52;;;;;;;4.15;3.85;;;22.60;99.90;;;;;;6060556;28;88006;-95
2022/09/05 15:44:59;;;;;;;4.95;4.45;;;22.60;99.90;;;;;;6056261;28;89228;-96
2022/09/05 15:48:15;;;;;;;4.68;4.05;;;22.50;99.90;;;;;;6065129;28;88611;-96
2022/09/05 15:51:32;;;;;;;4.90;4.40;;;22.60;99.90;;;;;;6053015;28;87025;-96
2022/09/05 15:54:39;;;;;;;4.60;4.20;;;22.60;99.90;;;;;;6062225;28;88136;-96
2022/09/05 15:57:47;;;;;;;4.78;4.38;;;22.60;99.90;;;;;;6042534;28;89537;-96
2022/09/05 16:00:51;;;;;;;4.45;4.03;;;22.60;99.90;;;;;;6050433;28;89950;-96
2022/09/05 16:03:54;;;;;;;4.20;3.90;;;22.60;99.90;;;;;;6052487;28;90415;-96
2022/09/05 16:06:58;;;;;;;5.05;4.35;;;22.60;99.90;;;;;;6060966;28;87988;-96
2022/09/05 16:10:05;;;;;;;4.40;4.00;;;22.60;99.90;;;;;;6053082;28;89666;-96
2022/09/05 16:13:12;;;;;;;4.78;4.35;;;22.60;99.90;;;;;;6059555;28;89678;-96
2022/09/05 16:16:15;;;;;;;19.20;5.47;;;22.60;99.90;;;;;;6043661;28;89025;-96
2022/09/05 16:19:25;;;;;;;7.38;4.47;;;22.50;99.90;;;;;;6064558;28;89454;-96
2022/09/05 16:22:32;;;;;;;5.80;4.32;;;22.60;99.90;;;;;;6057025;28;87239;-96
2022/09/05 16:25:40;;;;;;;4.82;4.43;;;22.50;99.90;;;;;;6060153;28;89699;-96
2022/09/05 16:28:46;;;;;;;5.40;4.18;;;22.50;99.90;;;;;;6048335;28;88320;-96
2022/09/05 16:32:05;;;;;;;4.97;4.18;;;22.50;99.90;;;;;;6057479;28;89905;-96
2022/09/05 16:35:10;;;;;;;5.03;4.63;;;22.50;99.90;;;;;;6052174;28;89427;-96
2022/09/05 16:38:20;;;;;;;4.90;4.45;;;22.50;99.90;;;;;;6054491;28;88388;-96
2022/09/05 16:41:40;;;;;;;4.80;4.30;;;22.50;99.90;;;;;;6056356;28;89550;-96
2022/09/05 16:44:48;;;;;;;5.05;4.53;;;22.50;99.90;;;;;;6056946;28;87981;-96
2022/09/05 16:47:59;;;;;;;4.75;4.38;;;22.50;99.90;;;;;;6054834;28;88361;-96
2022/09/05 16:51:09;;;;;;;4.40;4.00;;;22.50;99.90;;;;;;6064094;28;88259;-96
2022/09/05 16:54:19;;;;;;;4.47;4.13;;;22.50;99.90;;;;;;6066496;28;88732;-96